sensor_id;sensor_type;location;lat;lon;timestamp;temperature;humidity
67196;DHT22;54122;53.538;49.366;2023-02-11T00:01:28;-4.10;88.90
67196;DHT22;54122;53.538;49.366;2023-02-11T00:03:55;-4.10;89.00
67196;DHT22;54122;53.538;49.366;2023-02-11T00:06:22;-4.20;89.00
67196;DHT22;54122;53.538;49.366;2023-02-11T00:08:48;-4.10;89.20
67196;DHT22;54122;53.538;49.366;2023-02-11T00:11:17;-4.20;89.10
67196;DHT22;54122;53.538;49.366;2023-02-11T00:13:44;-4.10;89.10
67196;DHT22;54122;53.538;49.366;2023-02-11T00:16:14;-4.10;89.10
67196;DHT22;54122;53.538;49.366;2023-02-11T00:18:40;-4.10;88.90
67196;DHT22;54122;53.538;49.366;2023-02-11T00:21:08;-4.10;88.90
67196;DHT22;54122;53.538;49.366;2023-02-11T00:23:36;-4.00;89.00
67196;DHT22;54122;53.538;49.366;2023-02-11T00:26:02;-4.00;88.90
67196;DHT22;54122;53.538;49.366;2023-02-11T00:28:29;-4.00;88.80
67196;DHT22;54122;53.538;49.366;2023-02-11T00:30:56;-4.00;88.80
67196;DHT22;54122;53.538;49.366;2023-02-11T00:33:23;-4.00;88.90
67196;DHT22;54122;53.538;49.366;2023-02-11T00:35:49;-4.00;88.90
67196;DHT22;54122;53.538;49.366;2023-02-11T00:38:16;-3.90;88.90
67196;DHT22;54122;53.538;49.366;2023-02-11T00:40:42;-3.90;88.90
67196;DHT22;54122;53.538;49.366;2023-02-11T00:43:08;-3.90;88.90
67196;DHT22;54122;53.538;49.366;2023-02-11T00:45:34;-3.90;88.80
67196;DHT22;54122;53.538;49.366;2023-02-11T00:48:00;-3.90;89.90
67196;DHT22;54122;53.538;49.366;2023-02-11T00:50:26;-3.80;88.90
67196;DHT22;54122;53.538;49.366;2023-02-11T00:52:52;-3.80;89.00
67196;DHT22;54122;53.538;49.366;2023-02-11T00:55:19;-3.80;88.80
67196;DHT22;54122;53.538;49.366;2023-02-11T00:57:45;-3.80;88.70
67196;DHT22;54122;53.538;49.366;2023-02-11T01:00:13;-3.70;88.70
67196;DHT22;54122;53.538;49.366;2023-02-11T01:02:40;-3.80;88.60
67196;DHT22;54122;53.538;49.366;2023-02-11T01:05:06;-3.70;88.60
67196;DHT22;54122;53.538;49.366;2023-02-11T01:07:32;-3.70;88.60
67196;DHT22;54122;53.538;49.366;2023-02-11T01:09:58;-3.70;88.60
67196;DHT22;54122;53.538;49.366;2023-02-11T01:12:24;-3.70;88.60
67196;DHT22;54122;53.538;49.366;2023-02-11T01:14:51;-3.70;88.50
67196;DHT22;54122;53.538;49.366;2023-02-11T01:17:17;-3.70;88.50
67196;DHT22;54122;53.538;49.366;2023-02-11T01:19:43;-3.60;88.60
67196;DHT22;54122;53.538;49.366;2023-02-11T01:22:09;-3.60;88.60
67196;DHT22;54122;53.538;49.366;2023-02-11T01:24:35;-3.60;88.50
67196;DHT22;54122;53.538;49.366;2023-02-11T01:27:01;-3.50;88.40
67196;DHT22;54122;53.538;49.366;2023-02-11T01:29:28;-3.50;88.40
67196;DHT22;54122;53.538;49.366;2023-02-11T01:31:54;-3.50;88.30
67196;DHT22;54122;53.538;49.366;2023-02-11T01:34:20;-3.50;88.30
67196;DHT22;54122;53.538;49.366;2023-02-11T01:36:46;-3.50;88.20
67196;DHT22;54122;53.538;49.366;2023-02-11T01:39:12;-3.50;88.40
67196;DHT22;54122;53.538;49.366;2023-02-11T01:41:38;-3.50;88.40
67196;DHT22;54122;53.538;49.366;2023-02-11T01:44:35;-3.50;88.40
67196;DHT22;54122;53.538;49.366;2023-02-11T01:47:02;-3.50;88.30
67196;DHT22;54122;53.538;49.366;2023-02-11T01:49:39;-3.40;88.30
67196;DHT22;54122;53.538;49.366;2023-02-11T01:52:17;-3.40;88.20
67196;DHT22;54122;53.538;49.366;2023-02-11T01:54:58;-3.40;88.10
67196;DHT22;54122;53.538;49.366;2023-02-11T01:57:49;-3.40;87.90
67196;DHT22;54122;53.538;49.366;2023-02-11T02:05:35;-3.40;88.20
67196;DHT22;54122;53.538;49.366;2023-02-11T02:10:49;-3.40;88.30
67196;DHT22;54122;53.538;49.366;2023-02-11T02:13:19;-3.40;88.40
67196;DHT22;54122;53.538;49.366;2023-02-11T02:29:19;-3.30;88.30
67196;DHT22;54122;53.538;49.366;2023-02-11T02:34:57;-3.30;88.30
67196;DHT22;54122;53.538;49.366;2023-02-11T02:37:31;-3.30;88.40
67196;DHT22;54122;53.538;49.366;2023-02-11T02:40:04;-3.30;88.50
67196;DHT22;54122;53.538;49.366;2023-02-11T02:42:31;-3.30;88.60
67196;DHT22;54122;53.538;49.366;2023-02-11T02:44:58;-3.30;88.60
67196;DHT22;54122;53.538;49.366;2023-02-11T02:47:24;-3.30;88.80
67196;DHT22;54122;53.538;49.366;2023-02-11T02:49:50;-3.30;88.80
67196;DHT22;54122;53.538;49.366;2023-02-11T02:52:36;-3.30;88.90
67196;DHT22;54122;53.538;49.366;2023-02-11T03:08:31;-3.10;89.00
67196;DHT22;54122;53.538;49.366;2023-02-11T03:10:58;-3.10;88.90
67196;DHT22;54122;53.538;49.366;2023-02-11T03:13:30;-3.10;88.80
67196;DHT22;54122;53.538;49.366;2023-02-11T03:16:03;-3.10;88.80
67196;DHT22;54122;53.538;49.366;2023-02-11T03:18:34;-3.10;88.60
67196;DHT22;54122;53.538;49.366;2023-02-11T03:21:02;-3.10;88.70
67196;DHT22;54122;53.538;49.366;2023-02-11T03:23:48;-3.10;89.00
67196;DHT22;54122;53.538;49.366;2023-02-11T03:26:39;-3.10;88.60
67196;DHT22;54122;53.538;49.366;2023-02-11T03:29:37;-3.10;88.60
67196;DHT22;54122;53.538;49.366;2023-02-11T03:32:07;-3.10;88.60
67196;DHT22;54122;53.538;49.366;2023-02-11T03:34:39;-3.10;88.60
67196;DHT22;54122;53.538;49.366;2023-02-11T03:37:12;-3.10;88.60
67196;DHT22;54122;53.538;49.366;2023-02-11T03:40:10;-3.10;88.70
67196;DHT22;54122;53.538;49.366;2023-02-11T03:42:42;-3.10;88.60
67196;DHT22;54122;53.538;49.366;2023-02-11T03:45:12;-3.10;88.70
67196;DHT22;54122;53.538;49.366;2023-02-11T03:47:42;-3.10;88.80
67196;DHT22;54122;53.538;49.366;2023-02-11T03:50:12;-3.10;88.80
67196;DHT22;54122;53.538;49.366;2023-02-11T03:52:39;-3.10;88.70
67196;DHT22;54122;53.538;49.366;2023-02-11T03:55:12;-3.00;88.80
67196;DHT22;54122;53.538;49.366;2023-02-11T03:57:40;-3.00;88.80
67196;DHT22;54122;53.538;49.366;2023-02-11T04:00:07;-3.00;88.60
67196;DHT22;54122;53.538;49.366;2023-02-11T04:02:36;-3.00;88.50
67196;DHT22;54122;53.538;49.366;2023-02-11T04:05:03;-2.90;88.40
67196;DHT22;54122;53.538;49.366;2023-02-11T04:07:29;-2.90;88.30
67196;DHT22;54122;53.538;49.366;2023-02-11T04:09:55;-2.90;88.30
67196;DHT22;54122;53.538;49.366;2023-02-11T04:12:22;-2.90;88.10
67196;DHT22;54122;53.538;49.366;2023-02-11T04:14:48;-2.90;88.10
67196;DHT22;54122;53.538;49.366;2023-02-11T04:17:14;-2.90;88.10
67196;DHT22;54122;53.538;49.366;2023-02-11T04:19:41;-2.90;88.00
67196;DHT22;54122;53.538;49.366;2023-02-11T04:22:07;-2.90;87.90
67196;DHT22;54122;53.538;49.366;2023-02-11T04:24:34;-2.80;88.00
67196;DHT22;54122;53.538;49.366;2023-02-11T04:27:00;-2.80;87.90
67196;DHT22;54122;53.538;49.366;2023-02-11T04:29:26;-2.70;87.80
67196;DHT22;54122;53.538;49.366;2023-02-11T04:31:53;-2.70;87.70
67196;DHT22;54122;53.538;49.366;2023-02-11T04:34:20;-2.70;87.50
67196;DHT22;54122;53.538;49.366;2023-02-11T04:36:46;-2.70;87.40
67196;DHT22;54122;53.538;49.366;2023-02-11T04:39:12;-2.70;87.20
67196;DHT22;54122;53.538;49.366;2023-02-11T04:41:38;-2.70;87.00
67196;DHT22;54122;53.538;49.366;2023-02-11T04:44:05;-2.60;87.00
67196;DHT22;54122;53.538;49.366;2023-02-11T04:46:31;-2.60;86.80
67196;DHT22;54122;53.538;49.366;2023-02-11T04:48:57;-2.60;86.60
67196;DHT22;54122;53.538;49.366;2023-02-11T04:51:23;-2.60;86.60
67196;DHT22;54122;53.538;49.366;2023-02-11T04:53:49;-2.60;86.50
67196;DHT22;54122;53.538;49.366;2023-02-11T04:56:16;-2.50;86.40
67196;DHT22;54122;53.538;49.366;2023-02-11T04:58:42;-2.50;86.20
67196;DHT22;54122;53.538;49.366;2023-02-11T05:01:10;-2.50;85.90
67196;DHT22;54122;53.538;49.366;2023-02-11T05:03:36;-2.50;85.80
67196;DHT22;54122;53.538;49.366;2023-02-11T05:06:03;-2.40;85.70
67196;DHT22;54122;53.538;49.366;2023-02-11T05:08:30;-2.40;85.60
67196;DHT22;54122;53.538;49.366;2023-02-11T05:10:57;-2.30;85.30
67196;DHT22;54122;53.538;49.366;2023-02-11T05:13:23;-2.20;85.20
67196;DHT22;54122;53.538;49.366;2023-02-11T05:15:50;-2.20;84.90
67196;DHT22;54122;53.538;49.366;2023-02-11T05:18:16;-2.10;84.70
67196;DHT22;54122;53.538;49.366;2023-02-11T05:20:42;-2.10;84.20
67196;DHT22;54122;53.538;49.366;2023-02-11T05:23:09;-2.00;84.00
67196;DHT22;54122;53.538;49.366;2023-02-11T05:25:36;-2.00;83.80
67196;DHT22;54122;53.538;49.366;2023-02-11T05:28:03;-2.00;83.40
67196;DHT22;54122;53.538;49.366;2023-02-11T05:30:29;-2.00;83.20
67196;DHT22;54122;53.538;49.366;2023-02-11T05:32:56;-2.00;83.10
67196;DHT22;54122;53.538;49.366;2023-02-11T05:35:22;-1.90;83.10
67196;DHT22;54122;53.538;49.366;2023-02-11T05:37:48;-1.90;83.10
67196;DHT22;54122;53.538;49.366;2023-02-11T05:40:15;-1.80;83.20
67196;DHT22;54122;53.538;49.366;2023-02-11T05:42:41;-1.70;82.60
67196;DHT22;54122;53.538;49.366;2023-02-11T05:45:08;-1.70;82.20
67196;DHT22;54122;53.538;49.366;2023-02-11T05:47:34;-1.70;82.30
67196;DHT22;54122;53.538;49.366;2023-02-11T05:50:00;-1.60;82.00
67196;DHT22;54122;53.538;49.366;2023-02-11T05:52:26;-1.60;81.90
67196;DHT22;54122;53.538;49.366;2023-02-11T05:54:52;-1.50;81.20
67196;DHT22;54122;53.538;49.366;2023-02-11T05:57:19;-1.40;81.30
67196;DHT22;54122;53.538;49.366;2023-02-11T05:59:45;-1.40;80.90
67196;DHT22;54122;53.538;49.366;2023-02-11T06:02:11;-1.40;80.70
67196;DHT22;54122;53.538;49.366;2023-02-11T06:04:37;-1.40;80.60
67196;DHT22;54122;53.538;49.366;2023-02-11T06:07:03;-1.30;80.20
67196;DHT22;54122;53.538;49.366;2023-02-11T06:09:29;-1.30;79.80
67196;DHT22;54122;53.538;49.366;2023-02-11T06:11:56;-1.30;79.70
67196;DHT22;54122;53.538;49.366;2023-02-11T06:14:22;-1.30;79.50
67196;DHT22;54122;53.538;49.366;2023-02-11T06:16:48;-1.20;79.70
67196;DHT22;54122;53.538;49.366;2023-02-11T06:19:14;-1.20;79.30
67196;DHT22;54122;53.538;49.366;2023-02-11T06:21:40;-1.00;79.40
67196;DHT22;54122;53.538;49.366;2023-02-11T06:24:07;-1.00;79.20
67196;DHT22;54122;53.538;49.366;2023-02-11T06:26:33;-1.00;78.60
67196;DHT22;54122;53.538;49.366;2023-02-11T06:28:59;-0.90;78.00
67196;DHT22;54122;53.538;49.366;2023-02-11T06:31:26;-0.90;77.90
67196;DHT22;54122;53.538;49.366;2023-02-11T06:33:52;-0.90;77.70
67196;DHT22;54122;53.538;49.366;2023-02-11T06:36:21;-0.80;77.50
67196;DHT22;54122;53.538;49.366;2023-02-11T06:38:48;-0.80;77.40
67196;DHT22;54122;53.538;49.366;2023-02-11T06:41:16;-0.70;77.00
67196;DHT22;54122;53.538;49.366;2023-02-11T06:43:47;-0.60;76.50
67196;DHT22;54122;53.538;49.366;2023-02-11T06:46:14;-0.60;76.30
67196;DHT22;54122;53.538;49.366;2023-02-11T06:48:40;-0.50;75.80
67196;DHT22;54122;53.538;49.366;2023-02-11T06:51:08;-0.30;75.40
67196;DHT22;54122;53.538;49.366;2023-02-11T06:53:37;-0.20;74.80
67196;DHT22;54122;53.538;49.366;2023-02-11T06:56:05;0.00;74.40
67196;DHT22;54122;53.538;49.366;2023-02-11T06:58:33;0.10;74.30
67196;DHT22;54122;53.538;49.366;2023-02-11T07:01:07;0.50;73.80
67196;DHT22;54122;53.538;49.366;2023-02-11T07:03:34;1.10;72.50
67196;DHT22;54122;53.538;49.366;2023-02-11T07:06:02;1.50;70.50
67196;DHT22;54122;53.538;49.366;2023-02-11T07:08:29;1.80;69.50
67196;DHT22;54122;53.538;49.366;2023-02-11T07:10:55;1.90;68.40
67196;DHT22;54122;53.538;49.366;2023-02-11T07:13:21;2.10;67.10
67196;DHT22;54122;53.538;49.366;2023-02-11T07:15:47;2.10;65.30
67196;DHT22;54122;53.538;49.366;2023-02-11T07:18:14;2.00;64.90
67196;DHT22;54122;53.538;49.366;2023-02-11T07:20:40;1.80;64.60
67196;DHT22;54122;53.538;49.366;2023-02-11T07:23:07;1.60;64.40
67196;DHT22;54122;53.538;49.366;2023-02-11T07:25:35;1.40;64.50
67196;DHT22;54122;53.538;49.366;2023-02-11T07:28:02;1.20;65.00
67196;DHT22;54122;53.538;49.366;2023-02-11T07:30:31;1.00;65.50
67196;DHT22;54122;53.538;49.366;2023-02-11T07:32:58;1.00;65.80
67196;DHT22;54122;53.538;49.366;2023-02-11T07:35:24;0.90;65.50
67196;DHT22;54122;53.538;49.366;2023-02-11T07:37:50;0.80;66.00
67196;DHT22;54122;53.538;49.366;2023-02-11T07:40:16;0.80;66.40
67196;DHT22;54122;53.538;49.366;2023-02-11T07:42:44;0.80;66.20
67196;DHT22;54122;53.538;49.366;2023-02-11T07:45:10;0.80;66.80
67196;DHT22;54122;53.538;49.366;2023-02-11T07:47:37;0.90;66.60
67196;DHT22;54122;53.538;49.366;2023-02-11T07:50:05;0.90;66.40
67196;DHT22;54122;53.538;49.366;2023-02-11T07:52:32;0.80;66.70
67196;DHT22;54122;53.538;49.366;2023-02-11T07:54:58;0.90;66.90
67196;DHT22;54122;53.538;49.366;2023-02-11T07:57:24;0.90;67.00
67196;DHT22;54122;53.538;49.366;2023-02-11T07:59:51;1.00;67.00
67196;DHT22;54122;53.538;49.366;2023-02-11T08:02:17;1.00;67.50
67196;DHT22;54122;53.538;49.366;2023-02-11T08:04:47;1.00;66.60
67196;DHT22;54122;53.538;49.366;2023-02-11T08:07:17;1.00;66.80
67196;DHT22;54122;53.538;49.366;2023-02-11T08:09:48;0.90;65.90
67196;DHT22;54122;53.538;49.366;2023-02-11T08:12:14;0.70;65.90
67196;DHT22;54122;53.538;49.366;2023-02-11T08:14:40;0.60;66.80
67196;DHT22;54122;53.538;49.366;2023-02-11T08:17:07;0.70;67.10
67196;DHT22;54122;53.538;49.366;2023-02-11T08:19:34;0.80;66.90
67196;DHT22;54122;53.538;49.366;2023-02-11T08:22:00;1.10;66.70
67196;DHT22;54122;53.538;49.366;2023-02-11T08:24:26;1.20;66.10
67196;DHT22;54122;53.538;49.366;2023-02-11T08:26:54;1.40;65.40
67196;DHT22;54122;53.538;49.366;2023-02-11T08:29:20;1.40;64.90
67196;DHT22;54122;53.538;49.366;2023-02-11T08:31:47;1.40;64.80
67196;DHT22;54122;53.538;49.366;2023-02-11T08:34:13;1.40;65.00
67196;DHT22;54122;53.538;49.366;2023-02-11T08:36:46;1.60;64.90
67196;DHT22;54122;53.538;49.366;2023-02-11T08:39:18;1.70;64.80
67196;DHT22;54122;53.538;49.366;2023-02-11T08:41:47;1.80;64.60
67196;DHT22;54122;53.538;49.366;2023-02-11T08:44:13;1.90;64.40
67196;DHT22;54122;53.538;49.366;2023-02-11T08:46:40;2.00;63.30
67196;DHT22;54122;53.538;49.366;2023-02-11T08:49:06;2.00;63.00
67196;DHT22;54122;53.538;49.366;2023-02-11T08:51:32;1.80;62.50
67196;DHT22;54122;53.538;49.366;2023-02-11T08:53:59;1.60;63.00
67196;DHT22;54122;53.538;49.366;2023-02-11T08:56:26;1.40;63.40
67196;DHT22;54122;53.538;49.366;2023-02-11T08:58:53;1.40;64.00
67196;DHT22;54122;53.538;49.366;2023-02-11T09:01:22;1.30;64.20
67196;DHT22;54122;53.538;49.366;2023-02-11T09:03:49;1.40;64.70
67196;DHT22;54122;53.538;49.366;2023-02-11T09:06:16;1.40;64.50
67196;DHT22;54122;53.538;49.366;2023-02-11T09:08:46;1.30;64.40
67196;DHT22;54122;53.538;49.366;2023-02-11T09:11:15;1.20;64.40
67196;DHT22;54122;53.538;49.366;2023-02-11T09:13:45;1.20;64.70
67196;DHT22;54122;53.538;49.366;2023-02-11T09:16:24;1.00;64.30
67196;DHT22;54122;53.538;49.366;2023-02-11T09:18:51;0.80;65.00
67196;DHT22;54122;53.538;49.366;2023-02-11T09:21:18;0.50;65.50
67196;DHT22;54122;53.538;49.366;2023-02-11T09:23:46;0.40;66.40
67196;DHT22;54122;53.538;49.366;2023-02-11T09:26:16;0.30;66.90
67196;DHT22;54122;53.538;49.366;2023-02-11T09:28:43;0.20;67.30
67196;DHT22;54122;53.538;49.366;2023-02-11T09:31:12;0.10;67.80
67196;DHT22;54122;53.538;49.366;2023-02-11T09:33:40;0.00;68.10
67196;DHT22;54122;53.538;49.366;2023-02-11T09:36:18;0.00;68.60
67196;DHT22;54122;53.538;49.366;2023-02-11T09:38:45;0.10;68.70
67196;DHT22;54122;53.538;49.366;2023-02-11T09:41:34;0.10;68.70
67196;DHT22;54122;53.538;49.366;2023-02-11T09:44:07;0.10;68.80
67196;DHT22;54122;53.538;49.366;2023-02-11T09:46:36;0.30;68.80
67196;DHT22;54122;53.538;49.366;2023-02-11T09:49:05;0.50;68.50
67196;DHT22;54122;53.538;49.366;2023-02-11T09:51:38;0.50;68.30
67196;DHT22;54122;53.538;49.366;2023-02-11T09:54:14;0.60;68.20
67196;DHT22;54122;53.538;49.366;2023-02-11T09:56:43;0.60;67.90
67196;DHT22;54122;53.538;49.366;2023-02-11T09:59:13;0.70;68.20
67196;DHT22;54122;53.538;49.366;2023-02-11T10:07:24;0.80;67.60
67196;DHT22;54122;53.538;49.366;2023-02-11T10:10:16;0.70;67.70
67196;DHT22;54122;53.538;49.366;2023-02-11T10:13:18;0.60;68.00
67196;DHT22;54122;53.538;49.366;2023-02-11T10:23:38;0.70;68.70
67196;DHT22;54122;53.538;49.366;2023-02-11T10:26:15;0.80;68.60
67196;DHT22;54122;53.538;49.366;2023-02-11T10:28:46;1.00;68.70
67196;DHT22;54122;53.538;49.366;2023-02-11T10:31:33;1.20;68.20
67196;DHT22;54122;53.538;49.366;2023-02-11T10:34:10;1.30;67.80
67196;DHT22;54122;53.538;49.366;2023-02-11T10:36:39;1.30;67.10
67196;DHT22;54122;53.538;49.366;2023-02-11T10:39:12;1.20;66.80
67196;DHT22;54122;53.538;49.366;2023-02-11T10:42:04;1.20;66.80
67196;DHT22;54122;53.538;49.366;2023-02-11T10:44:33;1.10;66.50
67196;DHT22;54122;53.538;49.366;2023-02-11T10:47:14;1.00;66.70
67196;DHT22;54122;53.538;49.366;2023-02-11T10:49:44;0.90;66.60
67196;DHT22;54122;53.538;49.366;2023-02-11T10:52:18;0.70;67.00
67196;DHT22;54122;53.538;49.366;2023-02-11T10:55:04;0.50;67.40
67196;DHT22;54122;53.538;49.366;2023-02-11T10:57:41;0.30;67.90
67196;DHT22;54122;53.538;49.366;2023-02-11T11:02:57;0.10;69.00
67196;DHT22;54122;53.538;49.366;2023-02-11T11:05:34;0.00;69.20
67196;DHT22;54122;53.538;49.366;2023-02-11T11:08:06;0.00;69.70
67196;DHT22;54122;53.538;49.366;2023-02-11T11:10:37;-0.10;70.00
67196;DHT22;54122;53.538;49.366;2023-02-11T11:18:38;-0.20;70.60
67196;DHT22;54122;53.538;49.366;2023-02-11T11:21:28;-0.20;70.70
67196;DHT22;54122;53.538;49.366;2023-02-11T11:23:55;-0.10;70.90
67196;DHT22;54122;53.538;49.366;2023-02-11T11:26:23;0.00;70.90
67196;DHT22;54122;53.538;49.366;2023-02-11T11:29:00;0.10;70.60
67196;DHT22;54122;53.538;49.366;2023-02-11T11:31:33;0.10;70.30
67196;DHT22;54122;53.538;49.366;2023-02-11T11:34:05;0.20;70.20
67196;DHT22;54122;53.538;49.366;2023-02-11T11:36:40;0.20;70.20
67196;DHT22;54122;53.538;49.366;2023-02-11T11:39:18;0.10;70.10
67196;DHT22;54122;53.538;49.366;2023-02-11T11:42:00;0.10;70.40
67196;DHT22;54122;53.538;49.366;2023-02-11T11:44:34;0.00;70.50
67196;DHT22;54122;53.538;49.366;2023-02-11T11:50:19;0.00;70.50
67196;DHT22;54122;53.538;49.366;2023-02-11T11:55:44;-0.10;71.00
67196;DHT22;54122;53.538;49.366;2023-02-11T11:58:16;-0.10;71.10
67196;DHT22;54122;53.538;49.366;2023-02-11T12:09:26;-0.30;71.50
67196;DHT22;54122;53.538;49.366;2023-02-11T12:20:27;-0.50;72.70
67196;DHT22;54122;53.538;49.366;2023-02-11T12:42:33;-1.60;76.40
67196;DHT22;54122;53.538;49.366;2023-02-11T12:57:11;-1.90;78.40
67196;DHT22;54122;53.538;49.366;2023-02-11T12:59:46;-1.90;78.80
67196;DHT22;54122;53.538;49.366;2023-02-11T13:04:53;-1.90;78.90
67196;DHT22;54122;53.538;49.366;2023-02-11T13:07:35;-2.00;78.90
67196;DHT22;54122;53.538;49.366;2023-02-11T13:10:25;-2.10;79.00
67196;DHT22;54122;53.538;49.366;2023-02-11T13:12:53;-2.20;79.20
67196;DHT22;54122;53.538;49.366;2023-02-11T13:15:39;-2.30;79.60
67196;DHT22;54122;53.538;49.366;2023-02-11T13:23:49;-2.60;80.60
67196;DHT22;54122;53.538;49.366;2023-02-11T13:26:28;-2.70;81.00
67196;DHT22;54122;53.538;49.366;2023-02-11T13:29:08;-2.70;81.20
67196;DHT22;54122;53.538;49.366;2023-02-11T13:31:40;-2.80;81.40
67196;DHT22;54122;53.538;49.366;2023-02-11T13:37:18;-3.00;81.80
67196;DHT22;54122;53.538;49.366;2023-02-11T13:40:21;-3.10;82.10
67196;DHT22;54122;53.538;49.366;2023-02-11T13:43:01;-3.10;82.30
67196;DHT22;54122;53.538;49.366;2023-02-11T13:45:44;-3.20;82.50
67196;DHT22;54122;53.538;49.366;2023-02-11T13:48:46;-3.30;82.40
67196;DHT22;54122;53.538;49.366;2023-02-11T13:51:16;-3.30;82.80
67196;DHT22;54122;53.538;49.366;2023-02-11T13:53:50;-3.40;83.20
67196;DHT22;54122;53.538;49.366;2023-02-11T13:59:03;-3.50;83.40
67196;DHT22;54122;53.538;49.366;2023-02-11T14:05:25;-3.50;83.80
67196;DHT22;54122;53.538;49.366;2023-02-11T14:11:01;-3.60;84.20
67196;DHT22;54122;53.538;49.366;2023-02-11T14:13:32;-3.70;84.10
67196;DHT22;54122;53.538;49.366;2023-02-11T14:16:19;-3.70;84.20
67196;DHT22;54122;53.538;49.366;2023-02-11T14:32:02;-3.80;85.10
67196;DHT22;54122;53.538;49.366;2023-02-11T14:40:32;-3.90;85.20
67196;DHT22;54122;53.538;49.366;2023-02-11T14:43:27;-4.00;85.30
67196;DHT22;54122;53.538;49.366;2023-02-11T14:45:56;-4.00;85.60
67196;DHT22;54122;53.538;49.366;2023-02-11T14:48:38;-4.00;85.70
67196;DHT22;54122;53.538;49.366;2023-02-11T14:53:43;-4.10;86.00
67196;DHT22;54122;53.538;49.366;2023-02-11T14:56:26;-4.10;87.20
67196;DHT22;54122;53.538;49.366;2023-02-11T14:58:54;-4.20;86.20
67196;DHT22;54122;53.538;49.366;2023-02-11T15:03:53;-4.30;86.60
67196;DHT22;54122;53.538;49.366;2023-02-11T15:06:30;-4.40;87.00
67196;DHT22;54122;53.538;49.366;2023-02-11T15:09:00;-4.30;87.50
67196;DHT22;54122;53.538;49.366;2023-02-11T15:11:33;-4.30;87.30
67196;DHT22;54122;53.538;49.366;2023-02-11T15:14:15;-4.40;87.10
67196;DHT22;54122;53.538;49.366;2023-02-11T15:16:44;-4.40;87.20
67196;DHT22;54122;53.538;49.366;2023-02-11T15:19:25;-4.40;87.40
67196;DHT22;54122;53.538;49.366;2023-02-11T15:21:53;-4.50;87.50
67196;DHT22;54122;53.538;49.366;2023-02-11T15:29:44;-4.50;88.00
67196;DHT22;54122;53.538;49.366;2023-02-11T15:32:15;-4.50;88.10
67196;DHT22;54122;53.538;49.366;2023-02-11T15:34:43;-4.60;87.90
67196;DHT22;54122;53.538;49.366;2023-02-11T15:37:24;-4.60;88.00
67196;DHT22;54122;53.538;49.366;2023-02-11T15:39:51;-4.70;87.90
67196;DHT22;54122;53.538;49.366;2023-02-11T15:45:06;-4.70;88.10
67196;DHT22;54122;53.538;49.366;2023-02-11T15:47:32;-4.80;88.10
67196;DHT22;54122;53.538;49.366;2023-02-11T15:49:59;-4.80;88.20
67196;DHT22;54122;53.538;49.366;2023-02-11T15:52:27;-4.90;88.30
67196;DHT22;54122;53.538;49.366;2023-02-11T15:54:55;-4.90;88.60
67196;DHT22;54122;53.538;49.366;2023-02-11T15:57:24;-4.80;88.90
67196;DHT22;54122;53.538;49.366;2023-02-11T15:59:52;-4.80;88.80
67196;DHT22;54122;53.538;49.366;2023-02-11T16:02:30;-4.80;88.80
67196;DHT22;54122;53.538;49.366;2023-02-11T16:05:07;-4.80;88.60
67196;DHT22;54122;53.538;49.366;2023-02-11T16:10:03;-4.80;88.60
67196;DHT22;54122;53.538;49.366;2023-02-11T16:12:30;-4.80;88.70
67196;DHT22;54122;53.538;49.366;2023-02-11T16:14:56;-4.80;88.80
67196;DHT22;54122;53.538;49.366;2023-02-11T16:17:28;-4.80;88.70
67196;DHT22;54122;53.538;49.366;2023-02-11T16:19:55;-4.80;88.60
67196;DHT22;54122;53.538;49.366;2023-02-11T16:22:28;-4.80;88.60
67196;DHT22;54122;53.538;49.366;2023-02-11T16:25:00;-4.70;88.50
67196;DHT22;54122;53.538;49.366;2023-02-11T16:27:37;-4.70;88.30
67196;DHT22;54122;53.538;49.366;2023-02-11T16:30:21;-4.80;88.10
67196;DHT22;54122;53.538;49.366;2023-02-11T16:32:48;-4.80;88.00
67196;DHT22;54122;53.538;49.366;2023-02-11T16:35:14;-4.80;87.90
67196;DHT22;54122;53.538;49.366;2023-02-11T16:37:40;-4.90;87.80
67196;DHT22;54122;53.538;49.366;2023-02-11T16:40:07;-4.90;87.80
67196;DHT22;54122;53.538;49.366;2023-02-11T16:42:34;-5.00;87.70
67196;DHT22;54122;53.538;49.366;2023-02-11T16:45:00;-5.10;87.90
67196;DHT22;54122;53.538;49.366;2023-02-11T16:47:27;-5.10;87.90
67196;DHT22;54122;53.538;49.366;2023-02-11T16:49:55;-5.20;88.10
67196;DHT22;54122;53.538;49.366;2023-02-11T16:52:22;-5.20;88.20
67196;DHT22;54122;53.538;49.366;2023-02-11T16:54:48;-5.20;88.40
67196;DHT22;54122;53.538;49.366;2023-02-11T16:57:17;-5.20;88.50
67196;DHT22;54122;53.538;49.366;2023-02-11T16:59:44;-5.20;88.60
67196;DHT22;54122;53.538;49.366;2023-02-11T17:02:26;-5.30;88.60
67196;DHT22;54122;53.538;49.366;2023-02-11T17:04:55;-5.30;88.60
67196;DHT22;54122;53.538;49.366;2023-02-11T17:07:22;-5.40;88.70
67196;DHT22;54122;53.538;49.366;2023-02-11T17:09:49;-5.40;88.90
67196;DHT22;54122;53.538;49.366;2023-02-11T17:12:16;-5.40;88.90
67196;DHT22;54122;53.538;49.366;2023-02-11T17:14:43;-5.40;88.90
67196;DHT22;54122;53.538;49.366;2023-02-11T17:17:10;-5.50;89.00
67196;DHT22;54122;53.538;49.366;2023-02-11T17:19:37;-5.50;89.20
67196;DHT22;54122;53.538;49.366;2023-02-11T17:22:03;-5.50;89.20
67196;DHT22;54122;53.538;49.366;2023-02-11T17:24:30;-5.50;89.30
67196;DHT22;54122;53.538;49.366;2023-02-11T17:26:56;-5.50;89.30
67196;DHT22;54122;53.538;49.366;2023-02-11T17:29:24;-5.50;89.40
67196;DHT22;54122;53.538;49.366;2023-02-11T17:31:51;-5.50;89.50
67196;DHT22;54122;53.538;49.366;2023-02-11T17:34:19;-5.60;89.40
67196;DHT22;54122;53.538;49.366;2023-02-11T17:36:45;-5.60;89.30
67196;DHT22;54122;53.538;49.366;2023-02-11T17:39:11;-5.60;89.30
67196;DHT22;54122;53.538;49.366;2023-02-11T17:41:39;-5.70;89.40
67196;DHT22;54122;53.538;49.366;2023-02-11T17:44:07;-5.70;89.30
67196;DHT22;54122;53.538;49.366;2023-02-11T17:46:34;-5.80;89.40
67196;DHT22;54122;53.538;49.366;2023-02-11T17:49:01;-5.80;89.40
67196;DHT22;54122;53.538;49.366;2023-02-11T17:51:35;-5.80;89.50
67196;DHT22;54122;53.538;49.366;2023-02-11T17:54:04;-5.90;89.60
67196;DHT22;54122;53.538;49.366;2023-02-11T17:56:33;-5.90;90.30
67196;DHT22;54122;53.538;49.366;2023-02-11T17:59:00;-5.90;89.80
67196;DHT22;54122;53.538;49.366;2023-02-11T18:01:28;-6.00;89.70
67196;DHT22;54122;53.538;49.366;2023-02-11T18:03:54;-6.00;89.50
67196;DHT22;54122;53.538;49.366;2023-02-11T18:06:20;-6.00;89.50
67196;DHT22;54122;53.538;49.366;2023-02-11T18:08:47;-6.10;89.50
67196;DHT22;54122;53.538;49.366;2023-02-11T18:11:13;-6.10;89.70
67196;DHT22;54122;53.538;49.366;2023-02-11T18:13:41;-6.10;89.90
67196;DHT22;54122;53.538;49.366;2023-02-11T18:16:08;-6.20;90.00
67196;DHT22;54122;53.538;49.366;2023-02-11T18:18:41;-6.20;90.10
67196;DHT22;54122;53.538;49.366;2023-02-11T18:21:12;-6.20;90.10
67196;DHT22;54122;53.538;49.366;2023-02-11T18:23:39;-6.20;90.20
67196;DHT22;54122;53.538;49.366;2023-02-11T18:26:10;-6.20;90.20
67196;DHT22;54122;53.538;49.366;2023-02-11T18:28:38;-6.20;90.10